Погода Порту-Алегрина 2 недели

Риу-Гранди-ду-Сул, Бразилия

07 - 20 февраля
  • 07февраля
    Сегодня
    +21°
    +32°
    Практически безоблачно
    ВремяПогодаТемператураВлажностьДавлениеВетер, м/сВероятность осадков
    00:00Ясно и безоблачно+21°C64 %760 мм2.9 м/с5 %
    03:00Небольшая облачность+21°C75 %759 мм1.5 м/с5 %
    06:00Небольшая облачность+21°C75 %760 мм0.5 м/с5 %
    09:00Практически безоблачно+25°C63 %761 мм0.5 м/с5 %
    12:00Ясно и безоблачно+30°C48 %760 мм1.5 м/с3 %
    15:00Практически безоблачно+32°C42 %759 мм3.5 м/с22 %
    18:00Практически безоблачно+29°C49 %759 мм4.7 м/с28 %
    21:00Ясно и безоблачно+26°C65 %760 мм2.1 м/с5 %
  • 08февраля
    Среда
    +21°
    +34°
    Практически безоблачно
    ВремяПогодаТемператураВлажностьДавлениеВетер, м/сВероятность осадков
    00:00Ясно и безоблачно+24°C81 %760 мм4.0 м/с5 %
    03:00Ясно и безоблачно+22°C90 %759 мм2.0 м/с5 %
    06:00Ясно и безоблачно+21°C96 %759 мм1.4 м/с5 %
    09:00Ясно и безоблачно+27°C66 %760 мм1.4 м/с5 %
    12:00Небольшая облачность+31°C51 %759 мм0.9 м/с5 %
    15:00Практически безоблачно+34°C42 %758 мм4.0 м/с8 %
    18:00Практически безоблачно+31°C49 %757 мм4.7 м/с4 %
    21:00Практически безоблачно+26°C74 %759 мм2.2 м/с5 %
  • 09февраля
    Четверг
    +22°
    +34°
    Облачно с прояснениями
    ВремяПогодаТемператураВлажностьДавлениеВетер, м/сВероятность осадков
    00:00Ясно и безоблачно+24°C85 %759 мм3.7 м/с5 %
    03:00Небольшая облачность+23°C93 %758 мм1.6 м/с2 %
    06:00Облачно с прояснениями+22°C93 %759 мм1.5 м/с2 %
    09:00Пасмурно, сплошная облачность+28°C63 %760 мм2.0 м/с5 %
    12:00Небольшая облачность+31°C53 %760 мм1.1 м/с2 %
    15:00Облачно с прояснениями+33°C44 %759 мм2.9 м/с24 %
    18:00Практически безоблачно+29°C62 %758 мм2.1 м/с35 %
    21:00Ясно и безоблачно+26°C78 %759 мм1.6 м/с9 %
  • 10февраля
    Пятница
    +22°
    +34°
    Практически безоблачно
    ВремяПогодаТемператураВлажностьДавлениеВетер, м/сВероятность осадков
    00:00Ясно и безоблачно+25°C88 %759 мм2.6 м/с7 %
    03:00Ясно и безоблачно+24°C91 %759 мм0.7 м/с8 %
    06:00Ясно и безоблачно+23°C93 %760 мм1.2 м/с3 %
    09:00Ясно и безоблачно+28°C67 %761 мм0.5 м/с5 %
    12:00Ясно и безоблачно+32°C52 %760 мм1.3 м/с4 %
    15:00Практически безоблачно+34°C40 %759 мм4.1 м/с4 %
    18:00Ясно и безоблачно+31°C56 %758 мм5.2 м/с2 %
    21:00Ясно и безоблачно+26°C80 %759 мм2.1 м/с6 %
  • 11февраля
    Суббота
    +22°
    +34°
    Ясно и безоблачно
    ВремяПогодаТемператураВлажностьДавлениеВетер, м/сВероятность осадков
    00:00Ясно и безоблачно+25°C87 %759 мм3.0 м/с4 %
    03:00Ясно и безоблачно+23°C96 %759 мм1.5 м/с5 %
    06:00Облачно с прояснениями+23°C99 %759 мм1.8 м/с5 %
    09:00Ясно и безоблачно+28°C67 %760 мм0.7 м/с5 %
    12:00Ясно и безоблачно+32°C49 %759 мм1.4 м/с5 %
    15:00Ясно и безоблачно+34°C43 %758 мм4.5 м/с4 %
    18:00Ясно и безоблачно+32°C46 %757 мм5.7 м/с5 %
    21:00Ясно и безоблачно+26°C79 %758 мм2.4 м/с5 %
Мы используем cookies
Соглашаюсь